Time;durP1;ratioP1;P1;durP2;ratioP2;P2;SDS_P1;SDS_P2;PMS_P1;PMS_P2;Temp;Humidity;BMP_temperature;BMP_pressure;BME280_temperature;BME280_humidity;BME280_pressure;Samples;Min_cycle;Max_cycle;Signal;HPM_P1;HPM_P2
2023/06/25 00:01:01;;;;;;;9.70;8.90;;;17.00;99.90;;;;;;5185573;28;20419;-70
2023/06/25 00:03:32;;;;;;;9.48;8.57;;;17.30;99.90;;;;;;5185660;28;20025;-71
2023/06/25 00:06:03;;;;;;;9.02;8.27;;;17.10;99.90;;;;;;5185539;28;20144;-70
2023/06/25 00:08:34;;;;;;;8.43;7.63;;;17.10;99.90;;;;;;5186785;28;20033;-70
2023/06/25 00:11:05;;;;;;;10.85;9.95;;;17.10;99.90;;;;;;5189557;28;20026;-71
2023/06/25 00:13:36;;;;;;;9.38;8.40;;;16.90;99.90;;;;;;5189115;28;20061;-71
2023/06/25 00:16:07;;;;;;;8.52;7.82;;;17.00;99.90;;;;;;5189402;28;20038;-71
2023/06/25 00:18:38;;;;;;;8.18;7.40;;;17.10;99.90;;;;;;5189348;28;20424;-71
2023/06/25 00:21:09;;;;;;;9.40;8.60;;;17.10;99.90;;;;;;5189378;28;20030;-70
2023/06/25 00:23:40;;;;;;;8.13;7.35;;;17.20;99.90;;;;;;5189383;28;20079;-70
2023/06/25 00:26:10;;;;;;;9.23;8.45;;;17.10;99.90;;;;;;5189285;28;20058;-70
2023/06/25 00:28:41;;;;;;;9.25;8.40;;;17.10;99.90;;;;;;5189201;28;20509;-70
2023/06/25 00:31:12;;;;;;;8.23;7.55;;;17.10;99.90;;;;;;5189281;28;20022;-70
2023/06/25 00:33:43;;;;;;;8.70;7.90;;;17.10;99.90;;;;;;5188872;28;20059;-71
2023/06/25 00:36:15;;;;;;;7.88;7.20;;;17.00;99.90;;;;;;5188926;28;20029;-71
2023/06/25 00:38:47;;;;;;;7.60;6.90;;;17.00;99.90;;;;;;5187644;28;20030;-71
2023/06/25 00:41:18;;;;;;;7.50;6.80;;;16.70;99.90;;;;;;5188849;28;20030;-71
2023/06/25 00:43:49;;;;;;;7.50;6.50;;;16.70;99.90;;;;;;5188654;28;20486;-70
2023/06/25 00:46:23;;;;;;;7.63;6.93;;;16.50;99.90;;;;;;5188831;28;20030;-71
2023/06/25 00:48:54;;;;;;;7.78;7.07;;;16.70;99.90;;;;;;5188743;28;20030;-70
2023/06/25 00:51:27;;;;;;;7.32;6.57;;;16.60;99.90;;;;;;5188631;28;20504;-71
2023/06/25 00:53:58;;;;;;;7.25;6.38;;;16.60;99.90;;;;;;5188491;28;20104;-70
2023/06/25 00:56:29;;;;;;;7.07;6.05;;;16.70;99.90;;;;;;5188605;28;20029;-70
2023/06/25 00:59:01;;;;;;;6.50;5.85;;;16.50;99.90;;;;;;5188611;28;20033;-71
2023/06/25 01:01:48;;;;;;;6.75;6.03;;;16.60;99.90;;;;;;5188547;28;20018;-70
2023/06/25 01:04:25;;;;;;;6.15;5.57;;;16.70;99.90;;;;;;5188526;28;20139;-70
2023/06/25 01:07:00;;;;;;;5.70;5.20;;;16.60;99.90;;;;;;5188416;28;20029;-70
2023/06/25 01:09:32;;;;;;;6.18;5.65;;;16.50;99.90;;;;;;5188332;28;20024;-70
2023/06/25 01:12:04;;;;;;;6.65;6.03;;;16.60;99.90;;;;;;5188038;28;20482;-70
2023/06/25 01:14:35;;;;;;;6.22;5.35;;;16.80;99.90;;;;;;5188006;28;20042;-70
2023/06/25 01:17:07;;;;;;;11.68;5.78;;;16.70;99.90;;;;;;5188280;28;20457;-71
2023/06/25 01:19:40;;;;;;;6.07;5.32;;;16.50;99.90;;;;;;5187960;28;20022;-71
2023/06/25 01:22:14;;;;;;;6.25;5.70;;;16.70;99.90;;;;;;5188273;28;20141;-71
2023/06/25 01:24:47;;;;;;;7.03;5.82;;;16.60;99.90;;;;;;5188160;28;20024;-71
2023/06/25 01:27:21;;;;;;;6.70;6.10;;;16.60;99.90;;;;;;5188221;28;20023;-70
2023/06/25 01:29:53;;;;;;;7.30;6.70;;;16.50;99.90;;;;;;5188066;28;20021;-70
2023/06/25 01:32:24;;;;;;;7.57;6.85;;;16.60;99.90;;;;;;5187939;28;20037;-71
2023/06/25 01:34:55;;;;;;;7.82;7.05;;;16.50;99.90;;;;;;5187806;28;20466;-71
2023/06/25 01:37:28;;;;;;;7.63;6.93;;;16.60;99.90;;;;;;5187902;28;20097;-71
2023/06/25 01:39:59;;;;;;;6.93;6.32;;;16.50;99.90;;;;;;5186521;28;20168;-71
2023/06/25 01:42:30;;;;;;;6.88;6.28;;;16.40;99.90;;;;;;5187673;28;20541;-70
2023/06/25 01:45:02;;;;;;;7.18;6.55;;;16.40;99.90;;;;;;5187815;28;20036;-71
2023/06/25 01:47:33;;;;;;;5.78;5.28;;;16.60;99.90;;;;;;5187738;28;20458;-71
2023/06/25 01:50:05;;;;;;;6.78;6.03;;;16.40;99.90;;;;;;5186293;28;20032;-71
2023/06/25 01:52:36;;;;;;;6.85;6.20;;;16.50;99.90;;;;;;5187376;28;20420;-71
2023/06/25 01:55:07;;;;;;;7.57;6.88;;;16.50;99.90;;;;;;5187431;28;20036;-70
2023/06/25 01:57:38;;;;;;;9.52;6.20;;;16.40;99.90;;;;;;5187381;28;20022;-70
2023/06/25 02:00:11;;;;;;;6.47;5.88;;;16.30;99.90;;;;;;5187331;28;20084;-70
2023/06/25 02:02:43;;;;;;;6.82;5.97;;;16.30;99.90;;;;;;5187238;28;20041;-70
2023/06/25 02:05:14;;;;;;;7.20;6.45;;;16.30;99.90;;;;;;5187262;28;20080;-72
2023/06/25 02:07:45;;;;;;;6.10;5.50;;;16.20;99.90;;;;;;5187052;28;20034;-71
2023/06/25 02:10:16;;;;;;;5.53;5.00;;;16.30;99.90;;;;;;5187240;28;20370;-71
2023/06/25 02:12:47;;;;;;;6.40;5.82;;;16.10;99.90;;;;;;5186767;28;20398;-70
2023/06/25 02:15:17;;;;;;;6.65;5.53;;;16.40;99.90;;;;;;5186850;28;20057;-70
2023/06/25 02:17:48;;;;;;;5.97;5.35;;;16.30;99.90;;;;;;5186932;28;20084;-71
2023/06/25 02:20:19;;;;;;;6.28;5.35;;;16.40;99.90;;;;;;5186904;28;20026;-70
2023/06/25 02:22:50;;;;;;;5.38;4.88;;;16.30;99.90;;;;;;5186958;28;20022;-70
2023/06/25 02:25:21;;;;;;;6.63;4.97;;;16.40;99.90;;;;;;5187113;28;20524;-70
2023/06/25 02:27:52;;;;;;;7.32;5.10;;;16.20;99.90;;;;;;5186770;28;20381;-70
2023/06/25 02:30:22;;;;;;;6.20;5.60;;;16.10;99.90;;;;;;5186764;28;20117;-70
2023/06/25 02:32:53;;;;;;;9.48;6.35;;;16.10;99.90;;;;;;5185546;28;20086;-70
2023/06/25 02:35:24;;;;;;;6.75;6.10;;;16.10;99.90;;;;;;5186662;28;20080;-70
2023/06/25 02:37:55;;;;;;;6.03;5.47;;;16.20;99.90;;;;;;5186823;28;20045;-70
2023/06/25 02:40:28;;;;;;;7.18;6.50;;;16.00;99.90;;;;;;5186699;28;20019;-71
2023/06/25 02:42:59;;;;;;;6.60;6.10;;;16.10;99.90;;;;;;5186727;28;20073;-70
2023/06/25 02:45:30;;;;;;;8.77;5.97;;;16.10;99.90;;;;;;5186685;28;20050;-71
2023/06/25 02:48:01;;;;;;;7.75;7.05;;;16.20;99.90;;;;;;5186521;28;20034;-71
2023/06/25 02:50:32;;;;;;;8.80;6.90;;;16.00;99.90;;;;;;5186455;28;20374;-70
2023/06/25 02:53:03;;;;;;;8.40;6.88;;;16.10;99.90;;;;;;5186286;28;20033;-70
2023/06/25 02:55:33;;;;;;;8.00;7.35;;;16.10;99.90;;;;;;5186174;28;20017;-71
2023/06/25 02:58:04;;;;;;;7.30;6.70;;;16.30;99.90;;;;;;5186293;28;20073;-70
2023/06/25 03:00:35;;;;;;;8.40;7.60;;;16.10;99.90;;;;;;5186133;28;20029;-71
2023/06/25 03:03:06;;;;;;;7.68;6.70;;;16.30;99.90;;;;;;5186260;28;20036;-71
2023/06/25 03:05:37;;;;;;;9.18;7.40;;;16.20;99.90;;;;;;5186038;28;20092;-70
2023/06/25 03:08:08;;;;;;;8.65;7.85;;;16.30;99.90;;;;;;5186132;28;20033;-71
2023/06/25 03:10:39;;;;;;;7.90;7.07;;;16.30;99.90;;;;;;5186108;28;20029;-71
2023/06/25 03:13:11;;;;;;;9.32;6.55;;;16.20;99.90;;;;;;5185596;28;20077;-71
2023/06/25 03:15:42;;;;;;;7.35;6.75;;;16.30;99.90;;;;;;5186012;28;20033;-71
2023/06/25 03:18:13;;;;;;;7.85;7.05;;;16.40;99.90;;;;;;5186019;28;20022;-70
2023/06/25 03:20:44;;;;;;;8.00;6.43;;;16.40;99.90;;;;;;5185997;28;20080;-71
2023/06/25 03:23:14;;;;;;;7.65;6.65;;;16.30;99.90;;;;;;5185978;28;20065;-71
2023/06/25 03:25:45;;;;;;;9.20;7.70;;;16.40;99.90;;;;;;5185807;28;20027;-70
2023/06/25 03:28:16;;;;;;;9.50;8.60;;;16.50;99.90;;;;;;5185672;28;20072;-71
2023/06/25 03:30:48;;;;;;;11.20;10.25;;;16.70;99.90;;;;;;5185705;28;20424;-70
2023/06/25 03:33:18;;;;;;;9.45;8.68;;;16.70;99.90;;;;;;5185647;28;20101;-70
2023/06/25 03:35:49;;;;;;;8.02;7.32;;;16.50;99.90;;;;;;5185634;28;20030;-70
2023/06/25 03:38:20;;;;;;;7.43;6.70;;;16.60;99.90;;;;;;5185535;28;20053;-70
2023/06/25 03:40:51;;;;;;;9.80;7.30;;;16.90;99.90;;;;;;5185545;28;20053;-70
2023/06/25 03:43:22;;;;;;;8.15;7.35;;;16.90;99.90;;;;;;5184993;28;20030;-71
2023/06/25 03:45:53;;;;;;;8.20;7.20;;;17.00;99.90;;;;;;5185474;28;20026;-71
2023/06/25 03:48:23;;;;;;;8.18;7.30;;;17.00;99.90;;;;;;5184305;28;20022;-70
2023/06/25 03:50:54;;;;;;;9.10;8.15;;;17.10;99.90;;;;;;5185510;28;20061;-70
2023/06/25 03:53:26;;;;;;;9.07;7.55;;;16.90;99.90;;;;;;5185444;28;20045;-71
2023/06/25 03:55:57;;;;;;;7.63;6.93;;;16.90;99.90;;;;;;5185537;28;20018;-70
2023/06/25 03:58:28;;;;;;;9.68;8.35;;;17.20;99.90;;;;;;5185749;28;20391;-71
2023/06/25 04:00:59;;;;;;;8.80;7.97;;;17.20;99.90;;;;;;5185539;28;20113;-70
2023/06/25 04:03:30;;;;;;;9.60;8.70;;;17.60;99.90;;;;;;5185387;28;20433;-71
2023/06/25 04:06:03;;;;;;;10.02;8.98;;;17.70;99.90;;;;;;5185256;28;20081;-70
2023/06/25 04:08:34;;;;;;;8.63;7.82;;;17.70;99.90;;;;;;5185384;28;20022;-70
2023/06/25 04:11:05;;;;;;;9.40;8.60;;;17.70;99.90;;;;;;5185287;28;20445;-70
2023/06/25 04:13:36;;;;;;;9.02;8.32;;;17.90;99.90;;;;;;5184778;28;20050;-70
2023/06/25 04:16:08;;;;;;;10.20;9.43;;;17.80;99.90;;;;;;5185254;28;20034;-70
2023/06/25 04:18:42;;;;;;;9.60;8.45;;;18.10;99.90;;;;;;5185168;28;20034;-70
2023/06/25 04:21:12;;;;;;;10.07;9.20;;;18.00;99.90;;;;;;5185224;28;20160;-70
2023/06/25 04:23:43;;;;;;;10.18;9.48;;;18.20;99.90;;;;;;5185242;28;20425;-71
2023/06/25 04:26:14;;;;;;;11.43;10.52;;;18.40;99.90;;;;;;5185104;28;20029;-71
2023/06/25 04:28:45;;;;;;;11.50;10.50;;;18.40;99.90;;;;;;5185075;28;20492;-71
2023/06/25 04:31:16;;;;;;;12.75;11.77;;;18.50;99.90;;;;;;5185058;28;20485;-70
2023/06/25 04:33:47;;;;;;;14.30;13.20;;;18.80;99.90;;;;;;5184847;28;20073;-71
2023/06/25 04:36:19;;;;;;;12.88;11.60;;;18.70;99.90;;;;;;5185018;28;20018;-70
2023/06/25 04:38:50;;;;;;;14.32;13.15;;;18.90;99.90;;;;;;5184930;28;20041;-70
2023/06/25 04:41:21;;;;;;;12.32;11.32;;;19.10;99.90;;;;;;5184774;28;20018;-70
2023/06/25 04:43:52;;;;;;;14.57;13.50;;;19.40;99.90;;;;;;5184904;28;20025;-70
2023/06/25 04:46:23;;;;;;;14.18;13.00;;;19.60;99.90;;;;;;5184853;28;20133;-70
2023/06/25 04:48:54;;;;;;;12.60;11.43;;;19.80;99.90;;;;;;5184922;28;20046;-71
2023/06/25 04:51:24;;;;;;;12.95;11.88;;;20.00;99.90;;;;;;5184774;28;20030;-71
2023/06/25 04:53:55;;;;;;;12.95;11.88;;;20.20;99.90;;;;;;5184679;28;20042;-72
2023/06/25 04:56:26;;;;;;;13.30;12.30;;;20.30;99.90;;;;;;5187203;28;20026;-70
2023/06/25 04:58:57;;;;;;;15.65;14.13;;;20.60;99.90;;;;;;5188603;28;20109;-71
2023/06/25 05:01:28;;;;;;;14.77;13.50;;;20.80;99.90;;;;;;5188863;28;20030;-71
2023/06/25 05:03:59;;;;;;;12.52;11.40;;;20.90;99.90;;;;;;5188573;28;20072;-71
2023/06/25 05:06:30;;;;;;;11.80;10.77;;;21.10;99.90;;;;;;5188298;28;20049;-71
2023/06/25 05:09:01;;;;;;;9.60;8.77;;;21.30;99.90;;;;;;5188395;28;20029;-71
2023/06/25 05:11:32;;;;;;;10.45;8.30;;;21.30;99.90;;;;;;5188271;28;20102;-71
2023/06/25 05:14:03;;;;;;;9.80;8.95;;;21.50;99.90;;;;;;5187766;28;20076;-71
2023/06/25 05:16:34;;;;;;;8.88;8.05;;;21.40;99.90;;;;;;5188449;28;20100;-71
2023/06/25 05:19:04;;;;;;;9.35;8.55;;;21.50;99.90;;;;;;5188300;28;20029;-71
2023/06/25 05:21:35;;;;;;;10.70;9.57;;;21.50;99.90;;;;;;5188280;28;20034;-71
2023/06/25 05:24:06;;;;;;;9.55;8.32;;;21.60;99.90;;;;;;5188263;28;20026;-70
2023/06/25 05:26:37;;;;;;;10.95;9.90;;;21.50;99.90;;;;;;5188287;28;20101;-71
2023/06/25 05:29:08;;;;;;;10.40;9.50;;;21.60;99.90;;;;;;5188029;28;20109;-71
2023/06/25 05:31:39;;;;;;;10.35;9.38;;;21.80;99.90;;;;;;5188168;28;20806;-71
2023/06/25 05:34:10;;;;;;;8.98;8.20;;;22.00;99.90;;;;;;5187727;28;20046;-71
2023/06/25 05:36:41;;;;;;;9.55;8.30;;;22.20;99.90;;;;;;5188007;28;20381;-70
2023/06/25 05:39:12;;;;;;;9.38;7.68;;;22.10;99.90;;;;;;5187927;28;20042;-70
2023/06/25 05:41:42;;;;;;;8.65;7.53;;;22.10;99.90;;;;;;5187628;28;20022;-70
2023/06/25 05:44:13;;;;;;;7.60;6.80;;;22.10;99.90;;;;;;5187689;28;20026;-71
2023/06/25 05:46:44;;;;;;;7.93;7.15;;;22.10;99.90;;;;;;5187709;28;20033;-71
2023/06/25 05:49:15;;;;;;;9.38;7.05;;;22.20;99.90;;;;;;5187676;28;20033;-71
2023/06/25 05:51:46;;;;;;;9.55;7.07;;;22.20;99.90;;;;;;5187596;28;20057;-71
2023/06/25 05:54:17;;;;;;;8.32;7.63;;;22.30;99.90;;;;;;5187383;28;20044;-72
2023/06/25 05:56:48;;;;;;;7.55;6.93;;;22.50;99.90;;;;;;5187462;28;20036;-71
2023/06/25 05:59:18;;;;;;;7.75;7.00;;;22.60;99.90;;;;;;5187494;28;20032;-71
2023/06/25 06:01:49;;;;;;;7.68;6.97;;;22.70;99.90;;;;;;5187357;28;20072;-70
2023/06/25 06:04:20;;;;;;;9.77;8.27;;;22.40;99.90;;;;;;5187221;28;20049;-70
2023/06/25 06:06:51;;;;;;;8.82;7.97;;;22.40;99.90;;;;;;5187058;28;20037;-70
2023/06/25 06:09:22;;;;;;;8.65;7.88;;;22.30;99.90;;;;;;5187343;28;20049;-71
2023/06/25 06:11:53;;;;;;;8.93;8.10;;;22.60;99.90;;;;;;5186937;28;20030;-71
2023/06/25 06:14:25;;;;;;;8.00;7.18;;;22.70;99.90;;;;;;5186787;28;20093;-70
2023/06/25 06:16:56;;;;;;;8.15;7.35;;;22.80;99.90;;;;;;5187136;28;20102;-71
2023/06/25 06:19:27;;;;;;;8.25;6.65;;;22.80;99.90;;;;;;5187091;28;20452;-70
2023/06/25 06:21:58;;;;;;;9.90;7.45;;;22.60;99.90;;;;;;5187108;28;20065;-71
2023/06/25 06:24:28;;;;;;;9.27;7.32;;;22.80;99.90;;;;;;5187088;28;20057;-71
2023/06/25 06:26:59;;;;;;;8.10;6.68;;;22.90;99.90;;;;;;5187094;28;20030;-71
2023/06/25 06:29:30;;;;;;;7.07;6.38;;;23.20;99.90;;;;;;5187163;28;20124;-71
2023/06/25 06:32:01;;;;;;;7.53;6.78;;;23.50;99.90;;;;;;5187010;28;20026;-71
2023/06/25 06:34:32;;;;;;;6.68;5.85;;;23.80;99.90;;;;;;5186708;28;20037;-71
2023/06/25 06:37:03;;;;;;;7.63;7.00;;;23.80;99.90;;;;;;5186836;28;20093;-71
2023/06/25 06:39:34;;;;;;;10.65;6.80;;;23.80;99.90;;;;;;5186689;28;20085;-71
2023/06/25 06:42:05;;;;;;;8.20;7.55;;;23.80;99.90;;;;;;5186492;28;20053;-71
2023/06/25 06:44:36;;;;;;;7.80;7.10;;;23.80;99.90;;;;;;5186470;28;20052;-71
2023/06/25 06:47:07;;;;;;;8.77;7.60;;;23.90;99.90;;;;;;5186623;28;20047;-71
2023/06/25 06:49:38;;;;;;;9.15;7.97;;;24.10;99.90;;;;;;5186446;28;20032;-71
2023/06/25 06:52:09;;;;;;;7.55;6.85;;;24.00;99.90;;;;;;5186295;28;20474;-71
2023/06/25 06:54:40;;;;;;;7.00;6.40;;;24.30;99.90;;;;;;5186400;28;20501;-70
2023/06/25 06:57:10;;;;;;;8.10;6.78;;;24.40;99.90;;;;;;5186284;28;20064;-70
2023/06/25 06:59:41;;;;;;;6.75;5.70;;;24.50;99.90;;;;;;5186154;28;20061;-72
2023/06/25 07:02:12;;;;;;;8.98;6.05;;;24.60;99.90;;;;;;5186125;28;20457;-72
2023/06/25 07:04:43;;;;;;;6.00;5.38;;;24.50;99.90;;;;;;5186118;28;20021;-70
2023/06/25 07:07:14;;;;;;;6.20;5.45;;;24.20;99.90;;;;;;5186271;28;20418;-71
2023/06/25 07:09:51;;;;;;;6.68;5.25;;;24.30;99.90;;;;;;5186024;28;20029;-72
2023/06/25 07:12:22;;;;;;;11.07;5.25;;;24.60;99.90;;;;;;5185859;28;20042;-71
2023/06/25 07:14:53;;;;;;;8.40;6.50;;;24.70;99.90;;;;;;5185858;28;20045;-71
2023/06/25 07:17:24;;;;;;;7.32;5.63;;;24.70;99.90;;;;;;5185734;28;20150;-72
2023/06/25 07:19:55;;;;;;;10.05;5.90;;;24.80;99.90;;;;;;5185361;28;20030;-72
2023/06/25 07:22:26;;;;;;;7.03;6.03;;;24.90;99.90;;;;;;5185923;28;20030;-72
2023/06/25 07:24:57;;;;;;;7.65;6.72;;;25.10;99.90;;;;;;5185757;28;20025;-72
2023/06/25 07:27:28;;;;;;;7.22;6.63;;;25.10;99.90;;;;;;5185875;28;20469;-71
2023/06/25 07:29:59;;;;;;;7.32;6.38;;;25.20;99.90;;;;;;5185706;28;20021;-72
2023/06/25 07:32:30;;;;;;;7.95;6.15;;;25.20;99.90;;;;;;5185920;28;20041;-72
2023/06/25 07:35:00;;;;;;;6.07;5.50;;;25.00;99.90;;;;;;5185555;28;20366;-72
2023/06/25 07:37:31;;;;;;;6.38;5.85;;;24.70;99.90;;;;;;5185703;28;20026;-72
2023/06/25 07:40:02;;;;;;;6.28;5.82;;;24.90;99.90;;;;;;5185668;28;20431;-71
2023/06/25 07:42:33;;;;;;;6.70;5.72;;;24.80;99.90;;;;;;5184428;28;20109;-71
2023/06/25 07:45:05;;;;;;;7.40;5.75;;;24.60;99.90;;;;;;5185862;28;20126;-72
2023/06/25 07:47:36;;;;;;;7.72;5.70;;;24.60;99.90;;;;;;5185871;28;20382;-71
2023/06/25 07:50:07;;;;;;;6.70;6.10;;;24.50;99.90;;;;;;5185599;28;20101;-72
2023/06/25 07:52:38;;;;;;;8.18;5.53;;;24.60;99.90;;;;;;5185621;28;20038;-72
2023/06/25 07:55:09;;;;;;;5.88;5.32;;;24.70;99.90;;;;;;5185413;28;20025;-72
2023/06/25 07:57:40;;;;;;;5.93;5.32;;;24.70;99.90;;;;;;5185707;28;20029;-72
2023/06/25 08:00:11;;;;;;;5.57;5.00;;;24.90;99.90;;;;;;5185467;28;20022;-72
2023/06/25 08:02:42;;;;;;;5.85;5.32;;;24.80;99.90;;;;;;5185383;28;20159;-72
2023/06/25 08:05:13;;;;;;;8.57;5.43;;;24.80;99.90;;;;;;5185370;28;20030;-72
2023/06/25 08:07:44;;;;;;;5.53;5.03;;;24.90;99.90;;;;;;5185413;28;20073;-72
2023/06/25 08:10:15;;;;;;;4.95;4.47;;;25.30;99.90;;;;;;5185373;28;20037;-72
2023/06/25 08:12:46;;;;;;;6.10;4.97;;;25.50;99.90;;;;;;5184997;28;20034;-72
2023/06/25 08:15:17;;;;;;;5.05;4.53;;;25.70;99.90;;;;;;5185016;28;20068;-72
2023/06/25 08:17:48;;;;;;;7.68;4.70;;;25.90;99.90;;;;;;5185199;28;20088;-72
2023/06/25 08:20:19;;;;;;;6.10;4.97;;;26.10;99.90;;;;;;5185251;28;20117;-72
2023/06/25 08:22:50;;;;;;;5.85;5.35;;;25.90;99.90;;;;;;5185234;28;20482;-72
2023/06/25 08:25:26;;;;;;;7.07;5.22;;;25.70;99.90;;;;;;5185114;28;20490;-72
2023/06/25 08:27:57;;;;;;;6.93;5.13;;;25.80;99.90;;;;;;5185178;28;20042;-73
2023/06/25 08:30:28;;;;;;;5.35;4.85;;;26.10;99.90;;;;;;5187696;28;20022;-72
2023/06/25 08:32:59;;;;;;;6.32;4.55;;;26.10;99.90;;;;;;5189004;28;20041;-71
2023/06/25 08:35:30;;;;;;;4.88;4.40;;;26.10;99.90;;;;;;5188920;28;20021;-71
2023/06/25 08:38:01;;;;;;;5.57;4.38;;;26.30;99.90;;;;;;5188902;28;20018;-72
2023/06/25 08:40:34;;;;;;;7.00;3.97;;;26.40;99.90;;;;;;5188745;28;20516;-71
2023/06/25 08:43:05;;;;;;;4.45;3.70;;;26.40;99.90;;;;;;5188503;28;20041;-72
2023/06/25 08:45:36;;;;;;;5.10;4.45;;;26.60;99.90;;;;;;5188761;28;20026;-72
2023/06/25 08:48:14;;;;;;;7.22;6.30;;;26.70;99.90;;;;;;5188737;28;20472;-72
2023/06/25 08:50:56;;;;;;;6.80;6.20;;;26.10;99.90;;;;;;5188915;28;20033;-72
2023/06/25 08:53:31;;;;;;;8.07;7.38;;;26.60;99.90;;;;;;5188588;28;20068;-72
2023/06/25 08:56:05;;;;;;;10.45;8.85;;;26.80;99.90;;;;;;5188794;28;20080;-72
2023/06/25 08:58:36;;;;;;;11.20;10.27;;;26.80;99.90;;;;;;5188638;28;20477;-73
2023/06/25 09:01:07;;;;;;;12.43;8.63;;;26.80;99.90;;;;;;5188984;28;20026;-72
2023/06/25 09:03:38;;;;;;;12.00;9.77;;;27.10;99.90;;;;;;5188695;28;20504;-72
2023/06/25 09:06:15;;;;;;;10.43;9.73;;;27.10;99.90;;;;;;5188570;28;20053;-72
2023/06/25 09:08:46;;;;;;;10.27;9.63;;;26.80;99.90;;;;;;5188368;28;20018;-72
2023/06/25 09:11:17;;;;;;;11.65;10.73;;;27.00;99.90;;;;;;5188428;28;20022;-72
2023/06/25 09:13:48;;;;;;;10.57;9.57;;;27.10;99.90;;;;;;5188003;28;20049;-73
2023/06/25 09:16:19;;;;;;;9.20;8.60;;;27.20;99.90;;;;;;5188337;28;20409;-72
2023/06/25 09:18:50;;;;;;;8.18;7.45;;;27.20;99.90;;;;;;5188250;28;20021;-72
2023/06/25 09:21:20;;;;;;;6.47;5.85;;;27.20;99.90;;;;;;5188288;28;20038;-72
2023/06/25 09:23:52;;;;;;;7.25;6.55;;;26.90;99.90;;;;;;5188099;28;20075;-72
2023/06/25 09:26:23;;;;;;;7.35;6.60;;;27.10;99.90;;;;;;5188300;28;20053;-72
2023/06/25 09:28:59;;;;;;;7.07;6.38;;;27.00;99.90;;;;;;5188035;28;20433;-73
2023/06/25 09:31:33;;;;;;;7.43;6.50;;;26.90;99.90;;;;;;5188087;28;20486;-72
2023/06/25 09:34:04;;;;;;;7.70;7.10;;;26.80;99.90;;;;;;5187773;28;20065;-72
2023/06/25 09:36:35;;;;;;;7.47;6.72;;;27.10;99.90;;;;;;5187792;28;20035;-72
2023/06/25 09:39:08;;;;;;;8.32;5.22;;;27.00;99.90;;;;;;5187707;28;20022;-72
2023/06/25 09:41:42;;;;;;;8.25;6.60;;;26.70;99.90;;;;;;5187176;28;20025;-72
2023/06/25 09:44:14;;;;;;;7.65;6.85;;;27.10;99.90;;;;;;5187584;28;20389;-72
2023/06/25 09:46:48;;;;;;;9.00;8.23;;;27.20;99.90;;;;;;5187791;28;20030;-72
2023/06/25 09:49:19;;;;;;;7.43;6.55;;;27.60;99.90;;;;;;5187557;28;20041;-72
2023/06/25 09:52:06;;;;;;;8.52;6.05;;;27.40;99.90;;;;;;5187620;28;20096;-72
2023/06/25 09:54:40;;;;;;;5.90;5.30;;;27.60;99.90;;;;;;5187517;28;20104;-72
2023/06/25 09:57:16;;;;;;;6.80;6.13;;;27.60;99.90;;;;;;5187471;28;20100;-72
2023/06/25 09:59:47;;;;;;;8.43;5.70;;;27.60;99.90;;;;;;5187387;28;20068;-72
2023/06/25 10:02:19;;;;;;;7.00;5.70;;;27.60;99.90;;;;;;5187328;28;20055;-72
2023/06/25 10:04:50;;;;;;;5.70;5.18;;;27.60;99.90;;;;;;5187284;28;20037;-72
2023/06/25 10:07:23;;;;;;;5.53;5.13;;;27.70;99.90;;;;;;5187510;28;20050;-72
2023/06/25 10:09:54;;;;;;;5.22;4.72;;;27.60;99.90;;;;;;5187168;28;20034;-72
2023/06/25 10:12:25;;;;;;;5.10;4.60;;;27.60;99.90;;;;;;5186900;28;20428;-72
2023/06/25 10:14:59;;;;;;;6.38;5.18;;;27.70;99.90;;;;;;5186860;28;20064;-71
2023/06/25 10:17:30;;;;;;;6.00;4.88;;;27.70;99.90;;;;;;5187122;28;20366;-72
2023/06/25 10:20:04;;;;;;;7.03;5.47;;;27.80;99.90;;;;;;5187117;28;20030;-72
2023/06/25 10:22:38;;;;;;;7.75;6.15;;;27.80;99.90;;;;;;5187146;28;20030;-72
2023/06/25 10:25:09;;;;;;;6.72;5.93;;;27.80;99.90;;;;;;5187085;28;20084;-72
2023/06/25 10:27:40;;;;;;;7.10;5.63;;;27.90;99.90;;;;;;5187096;28;20026;-72
2023/06/25 10:30:15;;;;;;;7.57;6.68;;;27.90;99.90;;;;;;5186892;28;20122;-72
2023/06/25 10:32:46;;;;;;;8.98;8.07;;;28.00;99.90;;;;;;5186891;28;20114;-72
2023/06/25 10:35:18;;;;;;;10.80;9.75;;;28.10;99.90;;;;;;5186830;28;20030;-72
2023/06/25 10:37:49;;;;;;;10.05;9.05;;;28.10;99.90;;;;;;5186900;28;20458;-71
2023/06/25 10:40:20;;;;;;;9.40;8.68;;;28.10;99.90;;;;;;5186620;28;20084;-72
2023/06/25 10:42:50;;;;;;;9.05;8.35;;;28.00;99.90;;;;;;5186499;28;20374;-72
2023/06/25 10:45:21;;;;;;;9.77;8.90;;;28.10;99.90;;;;;;5186550;28;20069;-72
2023/06/25 10:48:08;;;;;;;8.13;7.53;;;28.20;99.90;;;;;;5186565;28;20139;-72
2023/06/25 10:50:39;;;;;;;9.82;9.20;;;28.00;99.90;;;;;;5186547;28;20839;-72
2023/06/25 10:53:12;;;;;;;9.95;9.23;;;28.00;99.90;;;;;;5185380;28;20069;-72
2023/06/25 10:55:48;;;;;;;8.82;8.13;;;28.10;99.90;;;;;;5186499;28;20057;-72
2023/06/25 10:58:24;;;;;;;8.95;8.27;;;28.00;99.90;;;;;;5186366;28;20018;-72
2023/06/25 11:00:56;;;;;;;11.35;10.45;;;28.00;99.90;;;;;;5186297;28;20033;-72
2023/06/25 11:03:34;;;;;;;12.35;8.15;;;28.20;99.90;;;;;;5186221;28;20026;-71
2023/06/25 11:06:05;;;;;;;9.40;8.60;;;28.10;99.90;;;;;;5186277;28;20029;-71
2023/06/25 11:08:36;;;;;;;10.25;9.48;;;28.20;99.90;;;;;;5186057;28;20026;-72
2023/06/25 11:11:07;;;;;;;10.25;9.43;;;28.20;99.90;;;;;;5184932;28;20436;-72
2023/06/25 11:13:37;;;;;;;9.75;8.95;;;28.30;99.90;;;;;;5185481;28;20109;-72
2023/06/25 11:16:08;;;;;;;9.13;7.20;;;28.40;99.90;;;;;;5186047;28;20116;-73
2023/06/25 11:18:39;;;;;;;7.22;6.63;;;28.30;99.90;;;;;;5186006;28;20018;-72
2023/06/25 11:21:10;;;;;;;7.10;6.55;;;28.40;99.90;;;;;;5185908;28;20033;-72
2023/06/25 11:23:44;;;;;;;8.70;7.22;;;28.20;99.90;;;;;;5185843;28;20064;-72
2023/06/25 11:26:17;;;;;;;6.53;5.93;;;28.30;99.90;;;;;;5186021;28;20026;-72
2023/06/25 11:28:49;;;;;;;7.38;6.07;;;28.60;99.90;;;;;;5185910;28;20080;-72
2023/06/25 11:31:20;;;;;;;6.30;5.75;;;28.70;99.90;;;;;;5185809;28;20087;-72
2023/06/25 11:33:54;;;;;;;8.27;6.57;;;28.60;99.90;;;;;;5185861;28;20034;-72
2023/06/25 11:36:25;;;;;;;7.05;6.47;;;28.70;99.90;;;;;;5185902;28;20485;-72
2023/06/25 11:38:58;;;;;;;6.55;5.32;;;28.30;99.90;;;;;;5185789;28;20072;-72
2023/06/25 11:41:28;;;;;;;6.10;4.97;;;28.40;99.90;;;;;;5185682;28;20354;-72
2023/06/25 11:43:59;;;;;;;8.50;5.82;;;28.70;99.90;;;;;;5185636;28;20076;-72
2023/06/25 11:46:30;;;;;;;7.15;5.70;;;28.70;99.90;;;;;;5185671;28;20092;-72
2023/06/25 11:49:01;;;;;;;5.75;5.25;;;28.60;99.90;;;;;;5185610;28;20033;-72
2023/06/25 11:51:32;;;;;;;6.43;5.90;;;28.60;99.90;;;;;;5185683;28;20101;-72
2023/06/25 11:54:03;;;;;;;5.95;5.45;;;28.30;99.90;;;;;;5185481;28;20130;-72
2023/06/25 11:56:34;;;;;;;6.28;5.68;;;28.40;99.90;;;;;;5185452;28;20046;-72
2023/06/25 11:59:05;;;;;;;5.93;5.43;;;28.70;99.90;;;;;;5185376;28;20152;-72
2023/06/25 12:01:36;;;;;;;6.50;5.97;;;28.70;99.90;;;;;;5185472;28;20030;-72
2023/06/25 12:04:07;;;;;;;5.90;5.32;;;28.70;99.90;;;;;;5185014;28;20030;-72
2023/06/25 12:06:37;;;;;;;6.50;5.90;;;28.60;99.90;;;;;;5184189;28;20030;-72
2023/06/25 12:09:08;;;;;;;6.65;6.15;;;28.50;99.90;;;;;;5184154;28;20038;-72
2023/06/25 12:11:39;;;;;;;6.28;5.65;;;28.60;99.90;;;;;;5185168;28;20030;-72
2023/06/25 12:14:10;;;;;;;12.20;5.90;;;28.30;99.90;;;;;;5184872;28;20132;-72
2023/06/25 12:16:41;;;;;;;6.20;5.50;;;28.40;99.90;;;;;;5185292;28;20037;-72
2023/06/25 12:19:12;;;;;;;7.10;5.07;;;28.20;99.90;;;;;;5185227;28;20026;-72
2023/06/25 12:21:43;;;;;;;7.15;5.95;;;28.50;99.90;;;;;;5185180;28;20026;-72
2023/06/25 12:24:13;;;;;;;9.60;7.30;;;28.50;99.90;;;;;;5185017;28;20087;-73
2023/06/25 12:26:45;;;;;;;6.60;6.00;;;28.50;99.90;;;;;;5185035;28;20095;-72
2023/06/25 12:29:15;;;;;;;6.10;5.60;;;28.80;99.90;;;;;;5185080;28;20049;-72
2023/06/25 12:31:46;;;;;;;5.40;4.43;;;28.90;99.90;;;;;;5185159;28;20033;-72
2023/06/25 12:34:17;;;;;;;4.70;4.22;;;28.50;99.90;;;;;;5185069;28;20095;-72
2023/06/25 12:36:48;;;;;;;6.05;5.55;;;28.60;99.90;;;;;;5185310;28;20026;-72
2023/06/25 12:39:19;;;;;;;11.13;4.60;;;28.70;99.90;;;;;;5185045;28;20022;-72
2023/06/25 12:41:50;;;;;;;4.70;4.30;;;28.50;99.90;;;;;;5184914;28;20034;-72
2023/06/25 12:44:21;;;;;;;6.03;4.50;;;28.80;99.90;;;;;;5185058;28;20120;-71
2023/06/25 12:46:52;;;;;;;5.70;5.13;;;28.80;99.90;;;;;;5184960;28;20030;-72
2023/06/25 12:49:23;;;;;;;5.55;5.05;;;28.40;99.90;;;;;;5185071;28;20022;-72
2023/06/25 12:51:53;;;;;;;6.13;5.20;;;28.60;99.90;;;;;;5184960;28;20381;-72
2023/06/25 12:54:24;;;;;;;4.80;4.30;;;28.60;99.90;;;;;;5184896;28;20045;-72
2023/06/25 12:56:55;;;;;;;4.95;4.43;;;28.30;99.90;;;;;;5184908;28;20028;-72
2023/06/25 12:59:26;;;;;;;5.80;4.38;;;28.40;99.90;;;;;;5184941;28;20080;-72
2023/06/25 13:01:58;;;;;;;5.00;4.18;;;28.50;99.90;;;;;;5184857;28;20026;-72
2023/06/25 13:04:29;;;;;;;4.30;3.90;;;28.50;99.90;;;;;;5184894;28;20370;-72
2023/06/25 13:06:59;;;;;;;5.25;4.28;;;28.60;99.90;;;;;;5184916;28;20042;-72